createdAt,value
2022-11-18T00:01:22.943Z,24.57
2022-11-18T00:03:53.909Z,24.53
2022-11-18T00:06:24.654Z,24.10
2022-11-18T00:08:53.356Z,24.70
2022-11-18T00:11:41.081Z,24.77
2022-11-18T00:14:21.115Z,26.57
2022-11-18T00:16:52.837Z,33.83
2022-11-18T00:19:24.688Z,29.70
2022-11-18T00:21:53.486Z,34.30
2022-11-18T00:24:22.047Z,31.33
2022-11-18T00:26:50.762Z,28.93
2022-11-18T00:29:19.750Z,28.73
2022-11-18T00:31:48.739Z,30.37
2022-11-18T00:34:19.160Z,28.23
2022-11-18T00:36:49.372Z,28.13
2022-11-18T00:39:19.669Z,26.33
2022-11-18T00:42:06.532Z,31.03
2022-11-18T00:44:35.348Z,31.27
2022-11-18T00:47:04.082Z,28.83
2022-11-18T00:49:32.449Z,29.37
2022-11-18T00:52:02.388Z,30.73
2022-11-18T00:54:30.867Z,34.00
2022-11-18T00:56:59.321Z,34.30
2022-11-18T00:59:27.594Z,31.07
2022-11-18T01:01:55.892Z,31.73
2022-11-18T01:04:24.345Z,34.07
2022-11-18T01:06:52.816Z,30.77
2022-11-18T01:09:22.515Z,32.57
2022-11-18T01:12:08.420Z,28.87
2022-11-18T01:14:36.764Z,33.90
2022-11-18T01:17:05.115Z,32.57
2022-11-18T01:19:33.424Z,30.07
2022-11-18T01:22:03.458Z,29.03
2022-11-18T01:24:34.417Z,29.23
2022-11-18T01:27:03.059Z,29.57
2022-11-18T01:29:31.306Z,31.10
2022-11-18T01:32:23.481Z,28.30
2022-11-18T01:34:47.875Z,28.30
2022-11-18T01:37:16.148Z,28.60
2022-11-18T01:39:45.831Z,25.53
2022-11-18T01:42:16.868Z,26.07
2022-11-18T01:45:20.761Z,27.23
2022-11-18T01:47:53.155Z,27.03
2022-11-18T01:50:23.109Z,27.33
2022-11-18T01:52:53.587Z,29.80
2022-11-18T01:55:27.928Z,33.97
2022-11-18T01:58:03.276Z,32.80
2022-11-18T02:00:31.535Z,33.77
2022-11-18T02:03:01.448Z,31.80
2022-11-18T02:05:31.597Z,31.93
2022-11-18T02:08:01.155Z,29.50
2022-11-18T02:10:30.734Z,30.77
2022-11-18T02:13:00.091Z,32.87
2022-11-18T02:15:45.629Z,34.13
2022-11-18T02:18:22.291Z,30.90
2022-11-18T02:20:56.738Z,31.87
2022-11-18T02:23:53.697Z,28.27
2022-11-18T02:26:55.711Z,28.07
2022-11-18T02:29:28.578Z,28.43
2022-11-18T02:32:01.249Z,31.60
2022-11-18T02:34:42.726Z,30.40
2022-11-18T02:37:19.205Z,27.33
2022-11-18T02:39:53.315Z,29.60
2022-11-18T02:42:24.020Z,35.30
2022-11-18T02:44:59.384Z,31.93
2022-11-18T02:47:30.526Z,30.83
2022-11-18T02:50:03.060Z,27.90
2022-11-18T02:52:33.758Z,41.03
2022-11-18T02:55:03.867Z,33.27
2022-11-18T02:57:34.365Z,33.73
2022-11-18T03:00:04.805Z,31.47
2022-11-18T03:02:42.486Z,38.47
2022-11-18T03:05:15.667Z,34.57
2022-11-18T03:07:47.589Z,38.80
2022-11-18T03:10:16.154Z,35.47
2022-11-18T03:12:50.299Z,37.10
2022-11-18T03:15:26.750Z,42.60
2022-11-18T03:18:01.866Z,34.60
2022-11-18T03:20:33.936Z,34.27
2022-11-18T03:23:07.911Z,31.17
2022-11-18T03:25:45.188Z,30.17
2022-11-18T03:28:19.298Z,29.77
2022-11-18T03:30:55.988Z,28.17
2022-11-18T03:33:31.189Z,28.83
2022-11-18T03:36:01.591Z,28.07
2022-11-18T03:38:34.943Z,36.00
2022-11-18T03:41:07.418Z,34.20
2022-11-18T03:43:38.585Z,34.47
2022-11-18T03:46:13.207Z,31.40
2022-11-18T03:48:47.821Z,29.03
2022-11-18T03:51:20.674Z,30.20
2022-11-18T03:53:55.059Z,28.40
2022-11-18T03:56:27.927Z,28.40
2022-11-18T03:59:01.734Z,28.10
2022-11-18T04:01:40.281Z,37.60
2022-11-18T04:04:10.335Z,33.37
2022-11-18T04:06:43.638Z,34.87
2022-11-18T04:09:16.521Z,36.07
2022-11-18T04:12:05.807Z,34.40
2022-11-18T04:14:36.551Z,36.07
2022-11-18T04:17:10.898Z,37.17
2022-11-18T04:19:39.600Z,33.87
2022-11-18T04:22:08.332Z,32.83
2022-11-18T04:24:36.699Z,30.40
2022-11-18T04:27:05.968Z,29.13
2022-11-18T04:29:35.347Z,28.30
2022-11-18T04:32:04.247Z,31.43
2022-11-18T04:34:33.917Z,29.53
2022-11-18T04:37:02.296Z,29.57
2022-11-18T04:39:30.641Z,30.63
2022-11-18T04:41:59.152Z,29.20
2022-11-18T04:44:29.210Z,27.10
2022-11-18T04:46:59.578Z,28.00
2022-11-18T04:49:28.968Z,26.50
2022-11-18T04:51:58.826Z,27.43
2022-11-18T04:54:28.395Z,25.53
2022-11-18T04:56:56.914Z,27.87
2022-11-18T04:59:26.671Z,29.57
2022-11-18T05:01:55.775Z,31.07
2022-11-18T05:04:26.278Z,29.07
2022-11-18T05:06:54.979Z,28.00
2022-11-18T05:09:30.253Z,26.97
2022-11-18T05:12:18.825Z,27.97
2022-11-18T05:14:50.637Z,28.03
2022-11-18T05:17:20.329Z,31.20
2022-11-18T05:19:48.618Z,30.97
2022-11-18T05:22:17.228Z,28.70
2022-11-18T05:24:46.840Z,29.03
2022-11-18T05:27:15.733Z,29.03
2022-11-18T05:29:44.229Z,28.80
2022-11-18T05:32:12.819Z,30.20
2022-11-18T05:34:41.497Z,34.63
2022-11-18T05:37:09.967Z,37.07
2022-11-18T05:39:38.197Z,35.13
2022-11-18T05:42:25.563Z,41.27
2022-11-18T05:44:58.134Z,38.60
2022-11-18T05:47:27.149Z,37.73
2022-11-18T05:49:55.515Z,36.53
2022-11-18T05:52:23.818Z,33.70
2022-11-18T05:54:52.796Z,38.40
2022-11-18T05:57:22.377Z,43.97
2022-11-18T05:59:50.765Z,35.20
2022-11-18T06:02:24.457Z,33.53
2022-11-18T06:04:57.447Z,83.87
2022-11-18T06:07:35.028Z,39.63
2022-11-18T06:10:06.266Z,36.90
2022-11-18T06:12:40.839Z,34.60
2022-11-18T06:15:14.817Z,42.23
2022-11-18T06:17:48.072Z,45.97
2022-11-18T06:20:18.936Z,46.90
2022-11-18T06:22:47.809Z,36.10
2022-11-18T06:25:16.516Z,34.87
2022-11-18T06:27:47.063Z,34.07
2022-11-18T06:30:16.238Z,78.80
2022-11-18T06:32:44.603Z,44.50
2022-11-18T06:35:12.973Z,39.50
2022-11-18T06:37:41.326Z,33.00
2022-11-18T06:40:10.516Z,32.83
2022-11-18T06:42:56.250Z,32.87
2022-11-18T06:45:25.956Z,29.37
2022-11-18T06:47:57.123Z,27.67
2022-11-18T06:50:25.696Z,31.57
2022-11-18T06:52:54.056Z,33.37
2022-11-18T06:55:22.385Z,36.03
2022-11-18T06:57:50.662Z,32.70
2022-11-18T07:00:19.618Z,35.60
2022-11-18T07:02:49.249Z,33.90
2022-11-18T07:05:17.625Z,32.63
2022-11-18T07:07:46.117Z,37.83
2022-11-18T07:10:14.497Z,33.33
2022-11-18T07:12:42.840Z,35.67
2022-11-18T07:15:11.640Z,32.37
2022-11-18T07:17:40.008Z,34.37
2022-11-18T07:20:10.548Z,34.30
2022-11-18T07:22:38.907Z,36.50
2022-11-18T07:25:07.667Z,35.27
2022-11-18T07:27:36.021Z,36.00
2022-11-18T07:30:04.689Z,39.50
2022-11-18T07:32:34.617Z,32.27
2022-11-18T07:35:02.927Z,32.93
2022-11-18T07:37:32.528Z,33.17
2022-11-18T07:40:00.936Z,33.23
2022-11-18T07:42:29.248Z,35.57
2022-11-18T07:44:57.616Z,33.37
2022-11-18T07:47:25.919Z,34.83
2022-11-18T07:49:54.218Z,33.80
2022-11-18T07:52:22.577Z,37.70
2022-11-18T07:54:52.137Z,33.33
2022-11-18T07:57:20.427Z,37.60
2022-11-18T07:59:48.697Z,35.77
2022-11-18T08:02:17.045Z,32.50
2022-11-18T08:04:45.443Z,34.47
2022-11-18T08:07:14.105Z,31.50
2022-11-18T08:09:42.497Z,38.17
2022-11-18T08:12:12.115Z,41.60
2022-11-18T08:14:40.435Z,38.00
2022-11-18T08:17:08.754Z,35.90
2022-11-18T08:19:37.106Z,39.73
2022-11-18T08:22:05.437Z,36.77
2022-11-18T08:24:33.860Z,36.20
2022-11-18T08:27:02.171Z,39.90
2022-11-18T08:29:32.106Z,36.60
2022-11-18T08:32:00.382Z,36.83
2022-11-18T08:34:28.690Z,33.47
2022-11-18T08:36:57.000Z,36.77
2022-11-18T08:39:25.310Z,38.17
2022-11-18T08:41:53.733Z,35.53
2022-11-18T08:44:22.078Z,33.50
2022-11-18T08:46:51.793Z,34.83
2022-11-18T08:49:20.414Z,32.33
2022-11-18T08:51:48.890Z,34.33
2022-11-18T08:54:17.271Z,32.10
2022-11-18T08:56:45.696Z,35.13
2022-11-18T08:59:14.014Z,31.93
2022-11-18T09:01:43.703Z,33.07
2022-11-18T09:04:13.407Z,33.33
2022-11-18T09:06:42.146Z,34.50
2022-11-18T09:09:10.527Z,36.93
2022-11-18T09:11:40.493Z,32.47
2022-11-18T09:15:06.348Z,31.90
2022-11-18T09:16:57.242Z,33.67
2022-11-18T09:22:15.460Z,33.07
2022-11-18T09:24:44.970Z,34.93
2022-11-18T09:27:16.944Z,35.77
2022-11-18T09:29:45.570Z,36.90
2022-11-18T09:32:14.030Z,37.57
2022-11-18T09:34:43.665Z,34.67
2022-11-18T09:37:13.098Z,33.60
2022-11-18T09:39:41.372Z,34.33
2022-11-18T09:42:25.765Z,34.17
2022-11-18T09:45:12.977Z,36.23
2022-11-18T09:47:42.479Z,34.47
2022-11-18T09:50:41.830Z,33.27
2022-11-18T09:53:14.896Z,34.03
2022-11-18T09:55:44.026Z,35.33
2022-11-18T09:58:19.687Z,32.87
2022-11-18T10:00:48.016Z,34.10
2022-11-18T10:03:24.058Z,33.60
2022-11-18T10:05:59.415Z,35.80
2022-11-18T10:08:32.857Z,37.17
2022-11-18T10:11:11.487Z,36.13
2022-11-18T10:13:56.762Z,40.77
2022-11-18T10:16:37.397Z,41.73
2022-11-18T10:19:20.356Z,37.90
2022-11-18T10:21:58.579Z,41.07
2022-11-18T10:24:31.436Z,37.77
2022-11-18T10:27:02.619Z,37.13
2022-11-18T10:29:30.936Z,35.23
2022-11-18T10:32:05.122Z,35.33
2022-11-18T10:34:34.729Z,33.73
2022-11-18T10:37:07.384Z,34.00
2022-11-18T10:39:50.307Z,32.50
2022-11-18T10:42:33.818Z,33.57
2022-11-18T10:45:18.007Z,34.70
2022-11-18T10:48:02.717Z,33.70
2022-11-18T10:50:34.135Z,35.20
2022-11-18T10:53:04.787Z,30.83
2022-11-18T10:55:33.934Z,31.20
2022-11-18T10:58:09.061Z,29.40
2022-11-18T11:00:47.157Z,28.63
2022-11-18T11:03:34.478Z,28.83
2022-11-18T11:06:31.136Z,32.63
2022-11-18T11:09:03.907Z,29.07
2022-11-18T11:11:34.007Z,31.00
2022-11-18T11:14:20.575Z,29.30
2022-11-18T11:17:03.452Z,31.10
2022-11-18T11:19:43.135Z,32.77
2022-11-18T11:22:15.446Z,31.50
2022-11-18T11:24:45.740Z,30.63
2022-11-18T11:30:23.806Z,28.63
2022-11-18T11:33:27.366Z,28.87
2022-11-18T11:36:15.238Z,25.67
2022-11-18T11:39:04.552Z,31.73
2022-11-18T11:41:45.662Z,28.97
2022-11-18T11:44:33.340Z,28.67
2022-11-18T11:47:31.375Z,29.83
2022-11-18T11:50:03.468Z,31.50
2022-11-18T11:52:41.987Z,29.53
2022-11-18T11:55:22.999Z,33.00
2022-11-18T11:58:09.385Z,31.60
2022-11-18T12:00:43.600Z,34.30
2022-11-18T12:03:47.270Z,34.87
2022-11-18T12:06:18.700Z,33.27
2022-11-18T12:08:57.807Z,33.07
2022-11-18T12:11:35.797Z,32.03
2022-11-18T12:14:13.997Z,32.80
2022-11-18T12:16:47.619Z,32.60
2022-11-18T12:19:18.296Z,33.53
2022-11-18T12:22:05.289Z,31.50
2022-11-18T12:24:38.667Z,34.13
2022-11-18T12:27:13.630Z,33.73
2022-11-18T12:29:56.799Z,32.67
2022-11-18T12:32:32.031Z,30.77
2022-11-18T12:35:02.937Z,32.40
2022-11-18T12:37:46.256Z,32.60
2022-11-18T12:40:37.107Z,33.10
2022-11-18T12:43:24.758Z,32.87
2022-11-18T12:45:56.936Z,32.40
2022-11-18T12:48:40.285Z,29.43
2022-11-18T12:51:49.779Z,30.87
2022-11-18T12:54:31.106Z,33.07
2022-11-18T12:57:02.428Z,32.10
2022-11-18T12:59:36.155Z,29.23
2022-11-18T13:02:24.093Z,30.30
2022-11-18T13:05:07.099Z,28.03
2022-11-18T13:07:58.248Z,27.73
2022-11-18T13:10:30.327Z,27.73
2022-11-18T13:12:59.579Z,26.00
2022-11-18T13:15:46.402Z,25.60
2022-11-18T13:18:18.883Z,25.97
2022-11-18T13:20:56.669Z,26.13
2022-11-18T13:23:48.687Z,27.90
2022-11-18T13:26:21.867Z,26.77
2022-11-18T13:29:09.228Z,26.37
2022-11-18T13:31:45.670Z,26.23
2022-11-18T13:34:20.451Z,25.30
2022-11-18T13:36:50.558Z,26.37
2022-11-18T13:39:24.462Z,28.57
2022-11-18T13:42:04.086Z,25.67
2022-11-18T13:44:33.929Z,25.63
2022-11-18T13:47:07.887Z,25.63
2022-11-18T13:49:53.850Z,25.50
2022-11-18T13:52:27.028Z,25.13
2022-11-18T13:54:57.077Z,25.03
2022-11-18T13:57:28.095Z,23.67
2022-11-18T13:59:56.815Z,25.57
2022-11-18T14:02:25.294Z,24.03
2022-11-18T14:04:57.773Z,23.87
2022-11-18T14:07:32.900Z,24.63
2022-11-18T14:10:03.760Z,25.23
2022-11-18T14:12:33.581Z,26.03
2022-11-18T14:15:16.613Z,25.13
2022-11-18T14:17:53.140Z,25.57
2022-11-18T14:20:23.886Z,27.60
2022-11-18T14:22:55.726Z,27.50
2022-11-18T14:25:28.236Z,27.87
2022-11-18T14:27:58.000Z,28.63
2022-11-18T14:30:37.493Z,28.50
2022-11-18T14:33:13.979Z,29.60
2022-11-18T14:35:46.097Z,28.30
2022-11-18T14:38:35.880Z,28.50
2022-11-18T14:41:07.142Z,27.63
2022-11-18T14:43:35.599Z,28.70
2022-11-18T14:46:06.507Z,27.73
2022-11-18T14:48:34.975Z,27.37
2022-11-18T14:51:04.717Z,26.63
2022-11-18T14:53:33.057Z,28.87
2022-11-18T14:56:01.467Z,28.23
2022-11-18T14:58:29.751Z,28.57
2022-11-18T15:00:58.163Z,28.87
2022-11-18T15:03:26.596Z,28.10
2022-11-18T15:05:55.009Z,26.40
2022-11-18T15:08:24.780Z,26.23
2022-11-18T15:10:53.032Z,26.93
2022-11-18T15:13:21.317Z,27.10
2022-11-18T15:15:49.590Z,27.70
2022-11-18T15:18:17.970Z,26.03
2022-11-18T15:20:46.217Z,25.00
2022-11-18T15:23:14.524Z,24.67
2022-11-18T15:25:44.171Z,26.80
2022-11-18T15:28:12.796Z,26.23
2022-11-18T15:30:41.094Z,26.53
2022-11-18T15:33:09.399Z,27.07
2022-11-18T15:35:37.720Z,28.77
2022-11-18T15:38:06.340Z,27.47
2022-11-18T15:40:35.212Z,27.83
2022-11-18T15:43:04.799Z,27.77
2022-11-18T15:45:33.148Z,27.07
2022-11-18T15:48:01.478Z,26.17
2022-11-18T15:50:29.787Z,26.77
2022-11-18T15:52:58.189Z,27.33
2022-11-18T15:55:26.476Z,26.63
2022-11-18T15:57:54.772Z,27.83
2022-11-18T16:00:24.598Z,27.67
2022-11-18T16:02:52.891Z,28.63
2022-11-18T16:05:21.191Z,26.70
2022-11-18T16:07:54.659Z,25.93
2022-11-18T16:10:55.202Z,26.53
2022-11-18T16:13:23.488Z,26.07
2022-11-18T16:15:53.037Z,27.53
2022-11-18T16:18:21.351Z,29.83
2022-11-18T16:20:49.897Z,28.10
2022-11-18T16:23:18.346Z,27.33
2022-11-18T16:25:47.310Z,26.47
2022-11-18T16:28:15.627Z,28.53
2022-11-18T16:31:06.534Z,28.23
2022-11-18T16:33:36.130Z,27.13
2022-11-18T16:36:04.539Z,28.77
2022-11-18T16:38:32.938Z,29.17
2022-11-18T16:41:01.669Z,27.70
2022-11-18T16:43:29.982Z,30.10
2022-11-18T16:45:58.388Z,27.33
2022-11-18T16:48:26.775Z,27.07
2022-11-18T16:51:19.243Z,28.47
2022-11-18T16:53:52.830Z,28.47
2022-11-18T16:56:22.116Z,27.93
2022-11-18T16:58:50.638Z,27.30
2022-11-18T17:01:23.466Z,27.27
2022-11-18T17:03:53.694Z,25.13
2022-11-18T17:06:24.393Z,24.07
2022-11-18T17:08:52.739Z,22.13
2022-11-18T17:11:21.593Z,22.13
2022-11-18T17:13:53.313Z,22.33
2022-11-18T17:16:25.517Z,22.83
2022-11-18T17:18:56.280Z,20.73
2022-11-18T17:21:26.831Z,21.10
2022-11-18T17:23:55.809Z,21.17
2022-11-18T17:26:26.535Z,19.33
2022-11-18T17:28:56.609Z,20.37
2022-11-18T17:31:25.868Z,20.23
2022-11-18T17:33:56.346Z,19.70
2022-11-18T17:36:27.886Z,18.33
2022-11-18T17:38:57.788Z,18.37
2022-11-18T17:41:45.159Z,18.50
2022-11-18T17:44:15.422Z,17.83
2022-11-18T17:46:43.935Z,18.07
2022-11-18T17:49:14.326Z,18.77
2022-11-18T17:51:46.193Z,17.43
2022-11-18T17:54:15.468Z,19.27
2022-11-18T17:56:44.097Z,20.97
2022-11-18T17:59:14.563Z,19.77
2022-11-18T18:01:43.001Z,19.70
2022-11-18T18:04:11.809Z,19.33
2022-11-18T18:06:40.075Z,17.70
2022-11-18T18:09:10.311Z,16.67
2022-11-18T18:11:38.587Z,15.93
2022-11-18T18:14:14.773Z,15.70
2022-11-18T18:16:45.522Z,15.20
2022-11-18T18:19:15.818Z,15.77
2022-11-18T18:21:44.056Z,15.40
2022-11-18T18:24:15.487Z,16.80
2022-11-18T18:26:43.926Z,16.63
2022-11-18T18:29:13.121Z,16.10
2022-11-18T18:31:41.792Z,15.50
2022-11-18T18:34:10.135Z,15.27
2022-11-18T18:36:38.970Z,15.90
2022-11-18T18:39:07.300Z,15.80
2022-11-18T18:41:38.516Z,15.90
2022-11-18T18:44:06.918Z,15.67
2022-11-18T18:46:36.129Z,15.60
2022-11-18T18:49:06.564Z,17.17
2022-11-18T18:51:37.992Z,18.23
2022-11-18T18:54:07.475Z,16.70
2022-11-18T18:56:38.645Z,16.33
2022-11-18T18:59:07.737Z,16.30
2022-11-18T19:01:37.036Z,15.93
2022-11-18T19:04:07.687Z,16.03
2022-11-18T19:06:58.823Z,16.90
2022-11-18T19:09:26.172Z,15.73
2022-11-18T19:12:13.913Z,16.13
2022-11-18T19:14:42.435Z,16.30
2022-11-18T19:17:12.428Z,16.17
2022-11-18T19:20:00.431Z,16.20
2022-11-18T19:22:31.494Z,16.60
2022-11-18T19:25:01.289Z,17.37
2022-11-18T19:27:31.680Z,17.47
2022-11-18T19:30:00.855Z,17.13
2022-11-18T19:32:29.179Z,16.47
2022-11-18T19:34:57.520Z,17.60
2022-11-18T19:37:26.307Z,17.30
2022-11-18T19:39:55.000Z,17.27
2022-11-18T19:42:23.311Z,18.03
2022-11-18T19:44:53.297Z,17.90
2022-11-18T19:47:21.698Z,19.10
2022-11-18T19:49:50.066Z,19.20
2022-11-18T19:52:18.379Z,18.97
2022-11-18T19:54:46.629Z,18.50
2022-11-18T19:57:14.931Z,18.57
2022-11-18T19:59:43.340Z,19.43
2022-11-18T20:02:13.568Z,19.67
2022-11-18T20:05:01.877Z,19.10
2022-11-18T20:07:30.891Z,18.63
2022-11-18T20:09:59.295Z,19.20
2022-11-18T20:12:30.651Z,19.87
2022-11-18T20:14:58.916Z,19.13
2022-11-18T20:17:28.577Z,19.37
2022-11-18T20:19:56.897Z,19.10
2022-11-18T20:22:26.259Z,20.70
2022-11-18T20:24:54.630Z,19.60
2022-11-18T20:27:23.034Z,19.80
2022-11-18T20:29:51.409Z,19.60
2022-11-18T20:32:19.736Z,20.83
2022-11-18T20:34:49.357Z,20.23
2022-11-18T20:37:19.115Z,20.27
2022-11-18T20:39:47.462Z,20.33
2022-11-18T20:42:33.548Z,20.87
2022-11-18T20:45:01.830Z,20.60
2022-11-18T20:47:30.083Z,19.90
2022-11-18T20:49:59.746Z,21.97
2022-11-18T20:52:28.103Z,21.60
2022-11-18T20:54:59.185Z,21.73
2022-11-18T20:57:31.020Z,21.13
2022-11-18T20:59:59.417Z,20.40
2022-11-18T21:02:27.768Z,20.70
2022-11-18T21:04:56.168Z,20.20
2022-11-18T21:07:25.782Z,21.97
2022-11-18T21:09:54.225Z,21.60
2022-11-18T21:12:26.215Z,23.30
2022-11-18T21:14:53.729Z,22.23
2022-11-18T21:17:22.116Z,22.53
2022-11-18T21:19:50.416Z,22.63
2022-11-18T21:22:18.043Z,23.60
2022-11-18T21:24:47.619Z,23.43
2022-11-18T21:27:16.568Z,23.03
2022-11-18T21:29:46.448Z,24.17
2022-11-18T21:32:14.767Z,23.97
2022-11-18T21:34:43.043Z,23.83
2022-11-18T21:37:11.264Z,23.60
2022-11-18T21:39:39.517Z,24.10
2022-11-18T21:42:09.161Z,25.00
2022-11-18T21:44:37.518Z,24.00
2022-11-18T21:47:05.804Z,24.67
2022-11-18T21:49:34.115Z,25.80
2022-11-18T21:52:02.381Z,25.43
2022-11-18T21:54:30.698Z,23.47
2022-11-18T21:56:58.996Z,24.90
2022-11-18T21:59:28.577Z,25.67
2022-11-18T22:01:56.940Z,24.70
2022-11-18T22:04:42.868Z,24.17
2022-11-18T22:07:11.236Z,24.00
2022-11-18T22:09:39.777Z,25.57
2022-11-18T22:12:08.548Z,25.37
2022-11-18T22:14:38.244Z,24.67
2022-11-18T22:17:06.876Z,25.90
2022-11-18T22:19:35.608Z,26.93
2022-11-18T22:22:04.458Z,26.37
2022-11-18T22:24:32.699Z,25.77
2022-11-18T22:27:01.071Z,26.60
2022-11-18T22:29:29.348Z,26.27
2022-11-18T22:31:59.296Z,27.13
2022-11-18T22:34:28.786Z,26.27
2022-11-18T22:36:57.106Z,26.93
2022-11-18T22:39:25.396Z,27.83
2022-11-18T22:42:11.169Z,27.20
2022-11-18T22:44:39.441Z,26.60
2022-11-18T22:47:09.009Z,27.43
2022-11-18T22:49:37.305Z,27.23
2022-11-18T22:52:05.827Z,26.90
2022-11-18T22:54:39.242Z,28.37
2022-11-18T22:57:09.002Z,27.63
2022-11-18T22:59:37.401Z,27.00
2022-11-18T23:02:05.699Z,27.23
2022-11-18T23:04:35.482Z,27.73
2022-11-18T23:07:03.816Z,27.80
2022-11-18T23:09:32.245Z,28.50
2022-11-18T23:12:18.217Z,27.23
2022-11-18T23:14:46.556Z,27.50
2022-11-18T23:17:16.091Z,28.27
2022-11-18T23:19:47.071Z,28.27
2022-11-18T23:22:15.430Z,26.17
2022-11-18T23:24:43.991Z,27.10
2022-11-18T23:27:12.291Z,25.73
2022-11-18T23:29:40.599Z,27.57
2022-11-18T23:32:08.904Z,27.80
2022-11-18T23:34:37.257Z,28.30
2022-11-18T23:37:06.846Z,28.63
2022-11-18T23:39:36.369Z,26.07
2022-11-18T23:42:05.230Z,28.67
2022-11-18T23:44:52.638Z,26.70
2022-11-18T23:47:21.028Z,27.57
2022-11-18T23:49:49.414Z,26.10
2022-11-18T23:52:19.000Z,28.03
2022-11-18T23:54:49.829Z,27.63
2022-11-18T23:57:18.203Z,28.37
2022-11-18T23:59:46.426Z,29.23
